Sagehen Creek Weather observations

Data are for observation ending at time listed.
 Day   Time    Ave.   Ave.  Ave.  Vector   Max.   Stn.    Total    Solar   Ave.  
  of    of     Air    Rel.  Wind   Wind    Wind   Baro.  Precip.   Rad.    Soil  
Year   Day     Temp.  Hum.  Speed  Dir.    Gust   Pres.                    Temp. 
2014   (PST)    F      %     mph   deg.    mph     mb.     in.     W/m2     F   
------------------------------------------------------------------------------
 273   10:10   56.5    58    3.4    79      7.3   835.5   13.31     509    999.0
 273   10:20   55.5    61    2.5    92      4.9   835.6   13.31     374    999.0
 273   10:30   56.7    56    3.1    84      6.9   835.6   13.31     654    999.0
 273   10:40   57.9    53    3.5    73      6.4   835.5   13.31     720    999.0
 273   10:50   59.0    43    3.3    64      5.6   835.4   13.31     746    999.0
 273   11:00   61.1    39    2.4    97      5.9   835.4   13.31     790    999.0
 273   11:10   61.4    39    3.0    75      6.1   835.4   13.31     777    999.0
 273   11:20   62.0    39    1.8   180      5.0   835.2   13.31     662    999.0
 273   11:30   62.0    36    1.9   242      3.8   835.1   13.31     704    999.0
 273   11:40   62.8    36    1.9   210      5.3   834.9   13.31     790    999.0
 273   11:50   63.8    35    1.7   221      5.0   835.1   13.31     806    999.0
 273   12:00   63.4    33    1.6   136      4.9   835.2   13.30     764    999.0
 273   12:10   63.9    31    2.1   240      4.5   835.2   13.30     743    999.0
 273   12:20   63.4    30    2.8   157      6.1   835.0   13.30     680    999.0
 273   12:30   63.0    30    1.5   284      6.2   834.8   13.30     705    999.0
 273   12:40   62.7    29    1.6   197      3.5   835.0   13.31     321    999.0
 273   12:50   62.7    31    1.2   255      3.2   835.0   13.30     763    999.0
 273   13:00   64.7    29    1.9   215      5.1   834.9   13.30     760    999.0
 273   13:10   65.6    28    1.7   235      5.7   834.8   13.31     759    999.0
 273   13:20   66.1    28    1.8   252      4.4   834.7   13.30     770    999.0
 273   13:30   66.6    29    1.7   251      4.1   834.6   13.30     744    999.0
 273   13:40   65.7    30    2.3   237      5.9   834.1   13.31     710    999.0
 273   13:50   63.9    32    2.1   234      5.5   834.3   13.31     449    999.0
 273   14:00   63.7    33    1.9   257      5.7   834.4   13.30     673    999.0
 273   14:10   65.0    32    1.8   228      4.0   834.2   13.30     654    999.0
 273   14:20   65.1    31    1.7   239      4.1   834.3   13.30     630    999.0
 273   14:30   64.2    32    1.9   246      5.1   834.4   13.30     498    999.0
 273   14:40   63.2    34    2.6   221      7.5   834.0   13.30     613    999.0
 273   14:50   63.1    35    1.4   224      3.7   834.2   13.31     251    999.0
 273   15:00   61.4    38    2.0   219      3.7   834.4   13.31     320    999.0
 273   15:10   61.5    36    2.1   249      5.9   834.4   13.31     500    999.0
 273   15:20   63.0    35    1.6   222      4.5   834.2   13.31     498    999.0
 273   15:30   62.7    35    2.0   232      4.2   833.9   13.31     463    999.0
 273   15:40   60.7    39    2.2   258      5.6   834.2   13.31     308    999.0
 273   15:50   59.7    42    1.2   283      3.2   834.2   13.31     190    999.0
 273   16:00   59.4    42    1.4   209      4.4   834.3   13.31      56    999.0
 273   16:10   57.7    47    0.9   229      3.4   834.3   13.31      50    999.0
 273   16:20   56.8    50    1.0   253      2.8   834.3   13.31      47    999.0
 273   16:30   56.8    50    1.6   237      5.8   834.2   13.31      61    999.0
 273   16:40   57.1    50    1.5   241      6.7   834.2   13.31      34    999.0
 273   16:50   56.6    52    1.3   234      3.1   834.2   13.31      25    999.0
 273   17:00   55.3    58    0.9   196      2.7   834.3   13.32      22    999.0
 273   17:10   54.2    62    0.7   241      2.2   834.4   13.31      18    999.0
 273   17:20   52.8    66    0.0   133      0.7   834.3   13.31      11    999.0
 273   17:30   51.6    70    0.0   171      0.6   834.3   13.31       8    999.0
 273   17:40   50.5    72    0.2   262      0.9   834.1   13.31       5    999.0
 273   17:50   49.5    74    0.7   264      1.3   834.2   13.32       4    999.0
 273   18:00   48.5    75    0.4   264      1.4   834.3   13.32       1    999.0
 273   18:10   47.5    78    0.1   262      0.7   834.8   13.32       0    999.0
 273   18:20   46.4    79    0.1   241      0.8   834.5   13.32       0    999.0
 273   18:30   45.6    81    0.1    94      0.8   834.3   13.32       0    999.0
 273   18:40   44.8    82    0.2   227      1.1   834.8   13.32       0    999.0
 273   18:50   44.3    83    0.4   272      1.3   834.8   13.32       0    999.0
 273   19:00   43.8    83    0.1   232      0.6   834.8   13.32       0    999.0
 273   19:10   43.1    84    0.4   254      1.2   835.2   13.32       0    999.0
 273   19:20   42.5    85    0.5   252      1.9   835.1   13.32       0    999.0
 273   19:30   41.8    86    0.0     0      0.0   835.1   13.32       0    999.0
 273   19:40   41.1    87    0.3   269      1.0   835.3   13.32       0    999.0
 273   19:50   40.9    88    0.2   267      1.0   835.2   13.32       0    999.0
 273   20:00   40.2    88    0.0     0      0.0   835.1   13.32       0    999.0
 273   20:10   39.7    89    0.6   266      1.8   835.5   13.32       0    999.0
 273   20:20   39.2    89    0.3   236      1.4   835.3   13.32       0    999.0
 273   20:30   38.5    89    0.0     0      0.0   835.1   13.32       0    999.0
 273   20:40   38.0    90    0.6   267      1.1   835.4   13.32       0    999.0
 273   20:50   37.6    90    0.0     0      0.0   835.6   13.32       0    999.0
 273   21:00   36.8    90    0.0     0      0.0   835.7   13.32       0    999.0
 273   21:10   36.4    90    0.5   260      1.0   835.6   13.32       0    999.0
 273   21:20   35.8    90    0.0     0      0.0   835.6   13.32       0    999.0
 273   21:30   35.3    90    0.2   251      0.9   835.6   13.32       0    999.0
 273   21:40   34.8    90    0.0   234      0.6   836.2   13.32       0    999.0
 273   21:50   34.2    91    0.3   236      1.0   836.1   13.32       0    999.0
 273   22:00   33.7    91    0.1   256      0.7   836.0   13.32       0    999.0
 273   22:10   33.4    91    0.3   266      1.4   836.0   13.32       0    999.0
 273   22:20   33.0    92    0.3   242      1.5   836.0   13.32       0    999.0
 273   22:30   32.6    92    0.6   262      1.3   835.9   13.32       0    999.0
 273   22:40   32.4    92    0.6   284      1.8   835.5   13.32       0    999.0
 273   22:50   32.0    92    0.8   213      1.7   835.6   13.32       0    999.0
 273   23:00   31.9    92    0.4   260      1.4   835.7   13.32       0    999.0
 273   23:10   31.4    92    0.1   225      0.9   836.1   13.32       0    999.0
 273   23:20   30.9    92    0.7   240      1.4   836.2   13.32       0    999.0
 273   23:30   30.5    92    0.5   222      1.5   836.2   13.32       0    999.0
 273   23:40   30.2    92    0.6   220      1.3   835.7   13.32       0    999.0
 273   23:50   29.8    92    0.4   268      0.9   835.7   13.32       0    999.0
 274    0:00   29.5    92    0.5   257      1.1   835.7   13.32       0    999.0
 274    0:10   29.3    93    0.3   251      0.9   836.0   13.32       0    999.0
 274    0:20   29.0    93    0.1   243      1.1   836.0   13.32       0    999.0
 274    0:30   28.7    93    0.6   250      1.6   835.9   13.32       0    999.0
 274    0:40   28.5    93    0.4   243      1.5   836.4   13.32       0    999.0
 274    0:50   28.3    93    0.4   258      1.6   836.3   13.32       0    999.0
 274    1:00   28.2    93    0.5   258      1.5   836.3   13.32       0    999.0
 274    1:10   28.0    93    0.2   232      1.0   836.0   13.32       0    999.0
 274    1:20   27.8    93    0.3   234      1.4   836.2   13.32       0    999.0
 274    1:30   27.6    93    0.4   233      1.1   836.3   13.32       0    999.0
 274    1:40   27.6    93    0.4   219      1.3   836.4   13.32       0    999.0
 274    1:50   27.4    93    0.4   215      1.4   836.2   13.32       0    999.0
 274    2:00   27.4    93    0.4   258      1.2   835.9   13.32       0    999.0
 274    2:10   27.3    93    0.3   215      1.1   835.9   13.32       0    999.0
 274    2:20   27.2    93    0.4   235      1.0   836.2   13.32       0    999.0
 274    2:30   27.0    93    0.1   274      0.7   836.5   13.32       0    999.0
 274    2:40   27.0    93    0.2   219      0.9   836.2   13.32       0    999.0
 274    2:50   26.9    93    0.4   249      1.5   836.1   13.32       0    999.0
 274    3:00   26.9    93    0.3   251      1.6   836.1   13.32       0    999.0
 274    3:10   26.8    93    0.1   242      0.6   836.4   13.32       0    999.0
 274    3:20   26.7    93    0.0   258      0.3   836.4   13.32       0    999.0
 274    3:30   26.8    93    0.4   262      1.4   836.4   13.32       0    999.0
 274    3:40   26.8    93    0.2   242      1.0   836.1   13.32       0    999.0
 274    3:50   26.8    94    0.3   218      1.6   836.4   13.32       0    999.0
 274    4:00   26.7    93    0.2   250      0.9   836.6   13.32       0    999.0
 274    4:10   26.7    94    0.6   238      1.4   836.8   13.32       0    999.0
 274    4:20   26.7    94    0.2   244      0.9   836.6   13.32       0    999.0
 274    4:30   26.6    94    0.6   245      1.6   836.4   13.32       0    999.0
 274    4:40   26.7    94    0.3   251      1.2   836.6   13.32       0    999.0
 274    4:50   26.5    94    0.3   244      1.5   836.6   13.32       0    999.0
 274    5:00   26.4    94    0.6   240      1.3   836.7   13.32       0    999.0
 274    5:10   26.4    94    0.7   260      1.4   836.5   13.32       0    999.0
 274    5:20   26.2    93    0.0   256      0.3   836.7   13.32       0    999.0
 274    5:30   26.2    93    0.4   274      1.4   836.8   13.32       0    999.0
 274    5:40   26.0    93    0.2   260      0.6   837.0   13.32       0    999.0
 274    5:50   25.9    94    0.2   258      0.8   837.0   13.32       1    999.0
 274    6:00   25.8    94    0.0   299      0.3   836.9   13.32       2    999.0
 274    6:10   25.8    94    0.3   291      1.6   837.1   13.32       5    999.0
 274    6:20   25.8    94    0.3   264      1.1   837.2   13.32       8    999.0
 274    6:30   25.8    93    0.0   269      0.4   837.3   13.32      10    999.0
 274    6:40   25.9    93    0.0     0      0.0   837.2   13.32      16    999.0
 274    6:50   26.1    93    0.2   260      1.0   837.0   13.32      33    999.0
 274    7:00   26.6    94    0.1   265      0.5   836.8   13.32      70    999.0
 274    7:10   27.6    94    0.0     0      0.0   837.5   13.32     202    999.0
 274    7:20   28.9    93    0.0     0      0.0   837.3   13.32     239    999.0
 274    7:30   30.4    92    0.2   188      1.2   837.2   13.32     272    999.0
 274    7:40   32.0    88    0.0     0      0.0   837.4   13.32     301    999.0
 274    7:50   33.6    86    0.0     0      0.0   837.5   13.32     330    999.0
 274    8:00   35.6    82    0.1   186      0.7   837.7   13.32     362    999.0
 274    8:10   37.7    80    0.1   230      0.6   837.5   13.32     393    999.0
 274    8:20   40.5    76    0.3   131      1.5   837.5   13.31     423    999.0
 274    8:30   43.8    59    1.5    92      3.5   837.5   13.32     453    999.0
 274    8:40   46.4    50    1.2   112      2.6   837.8   13.32     479    999.0
 274    8:50   46.5    46    3.5    92      5.5   837.5   13.32     502    999.0
 274    9:00   46.9    43    2.4   105      4.7   837.3   13.31     528    999.0
 274    9:10   48.5    42    1.3   103      4.8   837.9   13.31     554    999.0
 274    9:20   49.4    40    2.0    97      6.2   837.7   13.31     579    999.0
 274    9:30   49.8    39    3.0    76      6.8   837.6   13.31     600    999.0
 274    9:40   49.6    38    3.4   109      6.3   837.9   13.31     620    999.0
 274    9:50   50.5    39    2.4    86      5.6   837.8   13.31     639    999.0
 274   10:00   51.2    38    3.2   113      7.7   837.6   13.31     659    999.0

Return to Sagehen Creek graphs page.


Western Regional Climate Center,wrcc@dri.edu